createdAt,value
2022-09-01T00:09:43.097Z,10.60
2022-09-01T00:19:47.555Z,11.48
2022-09-01T00:29:50.614Z,13.73
2022-09-01T00:39:55.032Z,11.27
2022-09-01T00:49:58.360Z,11.52
2022-09-01T01:00:08.522Z,12.75
2022-09-01T01:10:15.775Z,12.68
2022-09-01T01:20:40.008Z,13.68
2022-09-01T01:30:51.096Z,13.18
2022-09-01T01:40:56.287Z,14.98
2022-09-01T01:51:00.811Z,14.40
2022-09-01T02:01:04.066Z,12.77
2022-09-01T02:11:09.498Z,14.30
2022-09-01T02:21:18.515Z,15.10
2022-09-01T02:31:24.037Z,15.63
2022-09-01T02:41:29.179Z,15.85
2022-09-01T02:51:34.505Z,17.08
2022-09-01T03:01:37.941Z,16.17
2022-09-01T03:11:47.647Z,17.17
2022-09-01T03:21:50.733Z,18.38
2022-09-01T03:31:55.259Z,19.02
2022-09-01T03:41:58.936Z,17.60
2022-09-01T03:52:03.746Z,19.48
2022-09-01T04:02:07.661Z,19.48
2022-09-01T04:12:15.711Z,19.67
2022-09-01T04:22:21.083Z,19.75
2022-09-01T04:32:25.804Z,22.88
2022-09-01T04:42:32.427Z,22.45
2022-09-01T04:52:36.902Z,22.33
2022-09-01T05:02:40.504Z,22.55
2022-09-01T05:12:46.010Z,32.50
2022-09-01T05:22:49.273Z,29.52
2022-09-01T05:32:55.024Z,20.63
2022-09-01T05:42:59.369Z,23.65
2022-09-01T05:53:15.838Z,21.00
2022-09-01T06:03:19.570Z,18.52
2022-09-01T06:13:25.656Z,17.98
2022-09-01T06:23:31.488Z,16.23
2022-09-01T06:33:37.260Z,25.73
2022-09-01T06:43:41.725Z,30.25
2022-09-01T06:53:51.158Z,17.63
2022-09-01T07:03:57.170Z,16.20
2022-09-01T07:14:19.988Z,22.10
2022-09-01T07:24:26.622Z,15.60
2022-09-01T07:34:39.723Z,15.95
2022-09-01T07:44:45.003Z,14.23
2022-09-01T07:54:49.423Z,14.27
2022-09-01T08:04:52.635Z,12.88
2022-09-01T08:25:24.678Z,13.57
2022-09-01T08:35:29.928Z,10.73
2022-09-01T08:45:38.215Z,12.15
2022-09-01T08:55:46.166Z,13.65
2022-09-01T09:06:07.753Z,11.20
2022-09-01T09:16:17.439Z,13.57
2022-09-01T09:26:22.271Z,10.73
2022-09-01T09:36:33.806Z,9.90
2022-09-01T09:46:39.055Z,11.20
2022-09-01T09:56:45.430Z,15.52
2022-09-01T10:06:49.004Z,10.98
2022-09-01T10:16:59.535Z,9.25
2022-09-01T10:27:08.313Z,10.02
2022-09-01T10:37:18.526Z,9.63
2022-09-01T10:47:30.026Z,9.63
2022-09-01T10:57:51.117Z,9.27
2022-09-01T11:08:03.090Z,10.57
2022-09-01T11:18:26.074Z,10.70
2022-09-01T11:28:45.413Z,8.57
2022-09-01T11:38:54.983Z,8.32
2022-09-01T11:49:01.075Z,8.20
2022-09-01T11:59:05.526Z,8.15
2022-09-01T12:09:08.636Z,7.82
2022-09-01T12:19:25.172Z,6.55
2022-09-01T12:29:32.114Z,7.22
2022-09-01T12:39:39.842Z,6.75
2022-09-01T12:49:50.304Z,5.85
2022-09-01T13:00:09.576Z,6.18
2022-09-01T13:10:12.633Z,6.38
2022-09-01T13:20:17.177Z,6.05
2022-09-01T13:30:22.989Z,6.88
2022-09-01T13:40:27.618Z,5.97
2022-09-01T13:51:14.009Z,6.18
2022-09-01T14:00:59.478Z,5.40
2022-09-01T14:11:02.978Z,6.82
2022-09-01T14:21:11.358Z,5.78
2022-09-01T14:31:16.226Z,5.20
2022-09-01T14:41:23.988Z,5.32
2022-09-01T15:01:55.866Z,5.07
2022-09-01T15:11:58.978Z,4.90
2022-09-01T15:22:04.369Z,5.00
2022-09-01T15:32:07.456Z,3.90
2022-09-01T15:42:11.988Z,4.53
2022-09-01T15:52:15.276Z,3.67
2022-09-01T16:02:21.349Z,3.38
2022-09-01T16:12:26.452Z,4.03
2022-09-01T16:22:35.368Z,3.55
2022-09-01T16:32:40.138Z,4.18
2022-09-01T16:42:51.391Z,3.70
2022-09-01T16:53:14.865Z,3.28
2022-09-01T17:03:24.263Z,3.17
2022-09-01T17:13:40.824Z,3.10
2022-09-01T17:23:54.611Z,3.45
2022-09-01T17:34:07.555Z,3.20
2022-09-01T17:44:21.193Z,3.25
2022-09-01T17:54:31.841Z,3.60
2022-09-01T18:04:53.224Z,4.88
2022-09-01T18:15:04.378Z,3.90
2022-09-01T18:25:14.386Z,3.70
2022-09-01T18:35:33.233Z,4.10
2022-09-01T18:45:46.362Z,4.30
2022-09-01T18:55:54.353Z,4.10
2022-09-01T19:06:20.283Z,3.92
2022-09-01T19:16:36.426Z,4.95
2022-09-01T19:26:44.478Z,4.43
2022-09-01T19:36:51.264Z,4.45
2022-09-01T19:47:02.099Z,4.18
2022-09-01T19:57:11.599Z,6.95
2022-09-01T20:07:28.899Z,6.53
2022-09-01T20:17:41.401Z,4.15
2022-09-01T20:27:54.285Z,3.80
2022-09-01T20:38:01.940Z,4.35
2022-09-01T20:48:12.928Z,4.57
2022-09-01T20:58:30.981Z,4.38
2022-09-01T21:08:45.053Z,4.85
2022-09-01T21:18:59.500Z,4.50
2022-09-01T21:29:18.138Z,4.50
2022-09-01T21:39:21.310Z,6.13
2022-09-01T21:49:26.012Z,5.30
2022-09-01T21:59:29.261Z,5.45
2022-09-01T22:09:33.867Z,5.13
2022-09-01T22:19:37.532Z,6.25
2022-09-01T22:29:42.566Z,5.78
2022-09-01T22:39:45.763Z,5.03
2022-09-01T22:49:50.193Z,6.10
2022-09-01T22:59:53.241Z,5.63
2022-09-01T23:09:57.862Z,5.97
2022-09-01T23:20:02.248Z,6.05
2022-09-01T23:30:09.701Z,6.20
2022-09-01T23:40:13.718Z,5.88
2022-09-01T23:50:18.346Z,5.93
